D/T METAR WX W/DIR W/SPE G/SPE TEMP DEWP
7/12/19 23:50 EGPE 072350Z AUTO 21022KT 9999 NCD 12/09 Q0975 SSW (210°) 25.3mph 12°C 9°C
7/12/19 23:20 EGPE 072320Z AUTO 21022G35KT 9999 SCT047/// 12/09 Q0976 SSW (210°) 25.3mph 40.3mph 12°C 9°C
7/12/19 22:20 EGPE 072220Z AUTO 20012KT 9999 -RA NCD 11/09 Q0978 -RA SSW (200°) 13.8mph 11°C 9°C
7/12/19 21:50 EGPE 072150Z AUTO 20019KT 9999 -RA FEW016/// 11/09 Q0979 -RA SSW (200°) 21.9mph 11°C 9°C
7/12/19 21:20 EGPE 072120Z 21016KT 9999 -RA FEW014 SCT031 11/09 Q0980 -RA SSW (210°) 18.4mph 11°C 9°C
7/12/19 20:50 EGPE 072050Z 21014KT 9999 -RA FEW014 SCT031 11/09 Q0981 -RA SSW (210°) 16.1mph 11°C 9°C
7/12/19 20:20 EGPE 072020Z 22013KT 9999 -RA FEW014 SCT036 11/10 Q0982 -RA SW (220°) 15.0mph 11°C 10°C
7/12/19 19:20 EGPE 071920Z 21012KT 9999 FEW014 SCT036 12/10 Q0985 SSW (210°) 13.8mph 12°C 10°C
7/12/19 18:50 EGPE 071850Z 21015KT 9999 FEW014 SCT036 12/09 Q0986 SSW (210°) 17.3mph 12°C 9°C
7/12/19 18:20 EGPE 071820Z 20013KT 9999 -RA FEW014 SCT036 11/09 Q0987 -RA SSW (200°) 15.0mph 11°C 9°C
7/12/19 17:20 EGPE 071720Z 22009KT 9999 -RA FEW014 SCT036 10/09 Q0989 -RA SW (220°) 10.4mph 10°C 9°C
7/12/19 16:50 EGPE 071650Z 24012KT 9999 -RA FEW014 SCT036 10/08 Q0990 -RA WSW (240°) 13.8mph 10°C 8°C
7/12/19 16:20 EGPE 071620Z 23008KT 9999 FEW011 SCT037 09/08 Q0991 SW (230°) 9.2mph 9°C 8°C
7/12/19 15:50 EGPE 071550Z 23003KT 9999 -RA FEW011 SCT037 08/07 Q0992 -RA SW (230°) 3.5mph 8°C 7°C
7/12/19 15:20 EGPE 071520Z 20002KT 9999 -RA FEW010 SCT035 08/07 Q0993 -RA SSW (200°) 2.3mph 8°C 7°C
7/12/19 14:50 EGPE 071450Z 00000KT 9999 -RA FEW008 SCT028 07/07 Q0993 -RA N (0°) 7°C 7°C
7/12/19 14:20 EGPE 071420Z 00000KT 9999 -RA FEW009 SCT028 07/07 Q0994 -RA N (0°) 7°C 7°C
7/12/19 13:50 EGPE 071350Z 00000KT 9999 -RA FEW009 SCT030 07/06 Q0996 -RA N (0°) 7°C 6°C
7/12/19 13:20 EGPE 071320Z 00000KT 9999 -RA FEW006 SCT032 07/06 Q0997 -RA N (0°) 7°C 6°C
7/12/19 12:50 EGPE 071250Z 00000KT 9999 -RA FEW005 SCT034 07/06 Q0997 -RA N (0°) 7°C 6°C
7/12/19 12:20 EGPE 071220Z 00000KT 9999 FEW004 SCT034 06/06 Q0998 N (0°) 6°C 6°C
7/12/19 11:50 EGPE 071150Z 00000KT 9999 FEW004 SCT038 06/05 Q0999 N (0°) 6°C 5°C
7/12/19 11:20 EGPE 071120Z 00000KT 9999 FEW004 BKN036 06/05 Q1000 N (0°) 6°C 5°C
7/12/19 10:50 EGPE 071050Z 00000KT 9999 FEW004 BKN035 06/05 Q1000 N (0°) 6°C 5°C
7/12/19 10:20 EGPE 071020Z 00000KT 9999 FEW004 BKN030 06/05 Q1001 N (0°) 6°C 5°C
7/12/19 09:50 EGPE 070950Z 21002KT 9999 FEW003 BKN030 06/05 Q1001 SSW (210°) 2.3mph 6°C 5°C
7/12/19 09:20 EGPE 070920Z 21001KT 9999 FEW003 BKN032 05/04 Q1001 SSW (210°) 1.2mph 5°C 4°C
7/12/19 08:50 EGPE 070850Z 00000KT 9999 FEW004 BKN032 04/03 Q1001 N (0°) 4°C 3°C
7/12/19 08:20 EGPE 070820Z 17002KT 9999 FEW004 SCT035 04/03 Q1001 S (170°) 2.3mph 4°C 3°C
7/12/19 07:50 EGPE 070750Z 20005KT 9999 FEW015 SCT035 05/04 Q1002 SSW (200°) 5.8mph 5°C 4°C
7/12/19 07:20 EGPE 070720Z 21003KT 9999 FEW015 BKN036 05/04 Q1002 SSW (210°) 3.5mph 5°C 4°C
7/12/19 06:50 EGPE 070650Z 23004KT 9999 FEW015 BKN029 06/05 Q1002 SW (230°) 4.6mph 6°C 5°C
7/12/19 06:20 EGPE 070620Z 22006KT 9999 FEW015 BKN031 06/05 Q1002 SW (220°) 6.9mph 6°C 5°C
7/12/19 05:50 EGPE 070550Z 23008KT 9999 FEW012 SCT023 06/04 Q1002 SW (230°) 9.2mph 6°C 4°C
7/12/19 05:20 EGPE 070520Z 22005KT 9999 FEW008 SCT023 06/05 Q1003 SW (220°) 5.8mph 6°C 5°C
7/12/19 04:50 EGPE 070450Z 23004KT 9999 FEW008 SCT026 06/05 Q1002 SW (230°) 4.6mph 6°C 5°C
7/12/19 04:20 EGPE 070420Z 22007KT 9999 FEW014 SCT026 06/05 Q1002 SW (220°) 8.1mph 6°C 5°C
7/12/19 03:50 EGPE 070350Z 23008KT 9999 VCSH FEW020 SCT035 06/05 Q1002 VCSH SW (230°) 9.2mph 6°C 5°C
7/12/19 03:20 EGPE 070320Z 22007KT 9999 -SHRA FEW029 SCT041 06/05 Q1001 -SHRA SW (220°) 8.1mph 6°C 5°C
7/12/19 02:20 EGPE 070220Z AUTO 22007KT 9999 -RA BKN028/// BKN037/// OVC043/// 06/05 Q1001 -RA SW (220°) 8.1mph 6°C 5°C
7/12/19 01:50 EGPE 070150Z AUTO 23006KT 9999 BKN017/// OVC037/// 06/04 Q1001 SW (230°) 6.9mph 6°C 4°C
7/12/19 01:20 EGPE 070120Z AUTO 23005KT 9999 SCT024/// BKN030/// BKN038/// 05/04 Q1001 SW (230°) 5.8mph 5°C 4°C
7/12/19 00:20 EGPE 070020Z AUTO 23009KT 9999 FEW028/// SCT039/// 06/04 Q1000 SW (230°) 10.4mph 6°C 4°C
6/12/19 23:50 EGPE 062350Z AUTO 23011KT 9999 FEW026/// BKN042/// 06/04 Q1000 SW (230°) 12.7mph 6°C 4°C
6/12/19 23:20 EGPE 062320Z AUTO 24008KT 9999 FEW011/// SCT019/// BKN024/// 06/04 Q1000 WSW (240°) 9.2mph 6°C 4°C
6/12/19 22:50 EGPE 062250Z AUTO 25007KT 9999 FEW035/// 06/04 Q0999 WSW (250°) 8.1mph 6°C 4°C
6/12/19 22:20 EGPE 062220Z AUTO 23007KT 9999 SCT027/// SCT040/// 05/03 Q0999 SW (230°) 8.1mph 5°C 3°C
6/12/19 21:50 EGPE 062150Z AUTO 21004KT 9999 FEW033/// BKN043/// 05/03 Q0999 SSW (210°) 4.6mph 5°C 3°C